x

Destruction Island, Wa (desw1) Weather Station

2:00am - Thu 7th May 2015 All times are PDT. -7 hours from GMT.

  • Wind
    9mph, 10mph gusts
  • 空気 Temp 48°f
  • Sea Pressure 1021.5mb
  • Destruction Island, Wa
  • Destruction Island, Wa

More Historic Weather Station data

Upgrade to MSW Pro to gain access to the past 30 days of data for over 8000 Wavebouys and Weather Stations around the globe.

Join Pro

Comparision Forecast

View Surf forecast
   
Thu 05/07 2:00am 9 10 mph 1021.5mb 48f
1:00am 11 14 mph 1021.6mb 50f
12:00am 14 15 mph 1021.6mb 50f
Wed 05/06 11:00pm 15 16 mph 1021.3mb 51f
10:00pm 17 18 mph 1021.2mb 51f
9:00pm 22 23 mph 1020.5mb 51f
8:00pm 26 28 mph 1020.2mb 51f
7:00pm 26 28 mph 1020.3mb 52f
6:00pm 21 23 mph 1020.3mb 53f
5:00pm 20 23 mph 1020.4mb 53f
4:00pm 21 24 mph 1020.6mb 53f
3:00pm 22 23 mph 1021mb 53f
2:00pm 20 22 mph 1021.1mb 54f
1:00pm 18 20 mph 1021mb 52f
12:00pm 14 15 mph 1021.2mb 51f
11:00am 9 10 mph 1021.3mb 51f
10:00am 3 5 mph 1021.3mb 51f
9:00am 3 5 mph 1021.3mb 49f
8:00am 6
mph
1021.1mb 47f
7:00am 7 8 mph 1020.9mb 43f
6:00am 8 9 mph 1020.6mb 42f
5:00am 9 10 mph 1020.4mb 43f
4:00am 9
mph
1020.2mb 43f
3:00am 10 11 mph 1020mb 44f
2:00am 9 10 mph 1020.2mb 44f
1:00am 10 11 mph 1020.3mb 45f
12:00am 6
mph
1020mb 47f
Tue 05/05 11:00pm 3
mph
1019.9mb 48f
10:00pm 6 8 mph 1020.1mb 48f
9:00pm 7
mph
1019.4mb 49f
8:00pm 7 8 mph 1019.1mb 49f
7:00pm 16 17 mph 1018.8mb 49f
6:00pm  -  1 mph 1018.9mb 51f
5:00pm 6 7 mph 1018.8mb 52f
4:00pm 13 14 mph 1018.9mb 54f
3:00pm 8
mph
1019mb 53f
2:00pm 14 15 mph 1019mb 52f
1:00pm 6 7 mph 1018.9mb 53f
12:00pm 1 3 mph 1018.7mb 54f
11:00am 3 5 mph 1018.2mb 49f
10:00am 9 11 mph 1017.6mb 51f
9:00am 7 8 mph 1017mb 51f
8:00am 15 17 mph 1016.2mb 50f
7:00am 15 17 mph 1015.6mb 49f
6:00am 20 24 mph 1015mb 49f
5:00am 16 18 mph 1014.6mb 48f
4:00am 14 15 mph 1014.5mb 48f
3:00am 17 20 mph 1014.5mb 49f
2:00am 25 26 mph 1014.4mb 50f
1:00am 26 37 mph 1014.4mb 51f
12:00am 17 20 mph 1014.4mb 51f
Mon 05/04 11:00pm 20 21 mph 1014.5mb 51f
10:00pm 18 21 mph 1014.6mb 51f
9:00pm 18 21 mph 1014.3mb 51f
8:00pm 15
mph
1014.4mb 52f
7:00pm 20 21 mph 1014.8mb 51f
6:00pm 17 20 mph 1015.2mb 51f
5:00pm 16 18 mph 1015.2mb 51f
4:00pm 20 22 mph 1015.5mb 51f
3:00pm 21 25 mph 1015.4mb 50f
2:00pm 22 28 mph 1015.2mb 49f
1:00pm 20 25 mph 1014.9mb 51f
12:00pm 23 26 mph 1014.7mb 51f
11:00am 18 22 mph 1014.4mb 51f
10:00am 11 15 mph 1014.1mb 51f
9:00am 13 15 mph 1013.9mb 50f
8:00am 13 15 mph 1013.6mb 50f
7:00am 7 8 mph 1013.2mb 50f
6:00am 8 9 mph 1012.9mb 49f
5:00am 3
mph
1012.9mb 49f
4:00am 3
mph
1012.9mb 48f
3:00am 3 5 mph 1012.9mb 48f
2:00am 8 10 mph 1013mb 49f
1:00am 9 10 mph 1013.1mb 49f
12:00am 10 11 mph 1013mb 50f
Sun 05/03 11:00pm 14
mph
1013mb 50f
10:00pm 16
mph
1013.3mb 51f
9:00pm 16 17 mph 1013.4mb 51f
8:00pm 15 16 mph 1013.7mb 51f
7:00pm 14 15 mph 1014mb 52f
6:00pm 10 13 mph 1014.2mb 54f
5:00pm 11 13 mph 1014.5mb 54f
4:00pm 10 13 mph 1015.4mb 54f
3:00pm 11 14 mph 1015.9mb 53f
2:00pm 10
mph
1016.2mb 53f
1:00pm 7 8 mph 1016.6mb 53f
12:00pm 7 8 mph 1017mb 52f
11:00am 8 9 mph 1017mb 52f